Time;durP1;ratioP1;P1;durP2;ratioP2;P2;SDS_P1;SDS_P2;PMS_P1;PMS_P2;Temp;Humidity;BMP_temperature;BMP_pressure;BME280_temperature;BME280_humidity;BME280_pressure;Samples;Min_cycle;Max_cycle;Signal;HPM_P1;HPM_P2
2021/07/08 00:01:51;;;;;;;;;;;16.60;99.90;;;;;;5070973;28;19920;-85
2021/07/08 00:04:17;;;;;;;;;;;16.70;99.90;;;;;;5070159;28;19927;-85
2021/07/08 00:06:43;;;;;;;;;;;16.70;99.90;;;;;;5073464;28;19920;-85
2021/07/08 00:09:09;;;;;;;;;;;16.60;99.90;;;;;;5069793;28;19931;-85
2021/07/08 00:11:35;;;;;;;;;;;16.50;99.90;;;;;;5068899;28;19929;-86
2021/07/08 00:14:01;;;;;;;;;;;16.60;99.90;;;;;;5049618;28;19928;-85
2021/07/08 00:16:27;;;;;;;;;;;16.50;99.90;;;;;;5033560;28;19931;-86
2021/07/08 00:18:53;;;;;;;;;;;16.60;99.90;;;;;;5030859;28;19924;-85
2021/07/08 00:21:19;;;;;;;;;;;16.60;99.90;;;;;;5050481;28;19977;-85
2021/07/08 00:23:45;;;;;;;;;;;16.70;99.90;;;;;;5049296;28;19971;-86
2021/07/08 00:26:11;;;;;;;;;;;16.60;99.90;;;;;;5052941;28;19964;-86
2021/07/08 00:28:36;;;;;;;;;;;16.60;99.90;;;;;;5035387;28;20369;-85
2021/07/08 00:31:03;;;;;;;;;;;16.60;99.90;;;;;;5052819;28;19931;-85
2021/07/08 00:33:28;;;;;;;;;;;16.60;99.90;;;;;;5052831;28;19928;-87
2021/07/08 00:35:54;;;;;;;;;;;16.60;99.90;;;;;;5052975;28;20487;-86
2021/07/08 00:38:20;;;;;;;;;;;16.60;99.90;;;;;;5035942;28;19931;-86
2021/07/08 00:40:45;;;;;;;;;;;16.50;99.90;;;;;;5070412;28;19928;-86
2021/07/08 00:43:11;;;;;;;;;;;16.50;99.90;;;;;;5044909;28;19927;-85
2021/07/08 00:45:37;;;;;;;;;;;16.60;99.90;;;;;;5049215;28;19929;-85
2021/07/08 00:48:04;;;;;;;;;;;16.60;99.90;;;;;;5065627;28;19935;-85
2021/07/08 00:50:32;;;;;;;;;;;16.60;99.90;;;;;;5048576;28;19921;-86
2021/07/08 00:52:58;;;;;;;;;;;16.60;99.90;;;;;;5049639;28;19925;-86
2021/07/08 00:55:24;;;;;;;;;;;16.70;99.90;;;;;;5033025;28;19947;-87
2021/07/08 00:57:54;;;;;;;;;;;16.70;99.90;;;;;;5056531;28;20375;-86
2021/07/08 01:00:29;;;;;;;;;;;16.70;99.90;;;;;;5028120;28;20376;-86
2021/07/08 01:02:56;;;;;;;;;;;16.60;99.90;;;;;;5051204;28;19924;-86
2021/07/08 01:05:23;;;;;;;;;;;16.60;99.90;;;;;;5032954;28;19925;-86
2021/07/08 01:07:51;;;;;;;;;;;16.60;99.90;;;;;;5049401;28;19932;-86
2021/07/08 01:10:17;;;;;;;;;;;16.60;99.90;;;;;;5051245;28;19927;-86
2021/07/08 01:12:43;;;;;;;;;;;16.60;99.90;;;;;;5034889;28;20015;-85
2021/07/08 01:15:10;;;;;;;;;;;16.60;99.90;;;;;;5031106;28;20332;-86
2021/07/08 01:17:36;;;;;;;;;;;16.50;99.90;;;;;;5028308;28;19920;-85
2021/07/08 01:20:03;;;;;;;;;;;16.50;99.90;;;;;;5059918;28;19925;-85
2021/07/08 01:22:29;;;;;;;;;;;16.40;99.90;;;;;;5045497;28;19969;-86
2021/07/08 01:24:56;;;;;;;;;;;16.30;99.90;;;;;;5031991;28;19950;-87
2021/07/08 01:27:22;;;;;;;;;;;16.40;99.90;;;;;;5035570;28;19925;-85
2021/07/08 01:29:47;;;;;;;;;;;16.30;99.90;;;;;;5051922;28;19925;-85
2021/07/08 01:32:13;;;;;;;;;;;16.30;99.90;;;;;;5051641;28;19925;-87
2021/07/08 01:34:39;;;;;;;;;;;16.30;99.90;;;;;;5051933;28;19981;-86
2021/07/08 01:37:05;;;;;;;;;;;16.20;99.90;;;;;;5051319;28;19921;-85
2021/07/08 01:39:30;;;;;;;;;;;16.20;99.90;;;;;;5052029;28;19924;-86
2021/07/08 01:41:56;;;;;;;;;;;16.20;99.90;;;;;;5051630;28;19921;-85
2021/07/08 01:44:22;;;;;;;;;;;16.20;99.90;;;;;;5034646;28;20359;-86
2021/07/08 01:46:48;;;;;;;;;;;16.10;99.90;;;;;;5063412;28;19924;-85
2021/07/08 01:49:15;;;;;;;;;;;16.10;99.90;;;;;;5015591;28;19925;-86
2021/07/08 01:51:41;;;;;;;;;;;16.00;99.90;;;;;;5049440;28;20634;-86
2021/07/08 01:54:10;;;;;;;;;;;15.90;99.90;;;;;;5029750;28;19927;-86
2021/07/08 01:56:37;;;;;;;;;;;16.00;99.90;;;;;;5048615;28;19929;-87
2021/07/08 01:59:03;;;;;;;;;;;16.00;99.90;;;;;;5039774;28;19932;-87
2021/07/08 02:01:29;;;;;;;;;;;15.90;99.90;;;;;;5047722;28;19924;-87
2021/07/08 02:03:55;;;;;;;;;;;15.90;99.90;;;;;;5033322;28;19948;-86
2021/07/08 02:06:21;;;;;;;;;;;15.90;99.90;;;;;;5053346;28;20370;-87
2021/07/08 02:08:47;;;;;;;;;;;15.90;99.90;;;;;;5051687;28;19931;-87
2021/07/08 02:11:13;;;;;;;;;;;15.90;99.90;;;;;;5034993;28;19931;-85
2021/07/08 02:13:45;;;;;;;;;;;15.80;99.90;;;;;;5050256;28;19925;-86
2021/07/08 02:16:11;;;;;;;;;;;15.80;99.90;;;;;;5035697;28;19931;-87
2021/07/08 02:18:37;;;;;;;;;;;15.80;99.90;;;;;;5018265;28;19921;-86
2021/07/08 02:21:03;;;;;;;;;;;15.70;99.90;;;;;;5015519;28;19925;-86
2021/07/08 02:23:29;;;;;;;;;;;15.70;99.90;;;;;;5015462;28;19925;-86
2021/07/08 02:25:55;;;;;;;;;;;15.80;99.90;;;;;;4999479;28;20030;-87
2021/07/08 02:28:20;;;;;;;;;;;15.70;99.90;;;;;;5019941;28;20386;-87
2021/07/08 02:30:46;;;;;;;;;;;15.80;99.90;;;;;;5015002;28;19921;-86
2021/07/08 02:33:12;;;;;;;;;;;15.70;99.90;;;;;;5023869;28;20276;-86
2021/07/08 02:35:38;;;;;;;;;;;15.80;99.90;;;;;;5034999;28;20024;-86
2021/07/08 02:38:04;;;;;;;;;;;15.70;99.90;;;;;;5018116;28;20353;-86
2021/07/08 02:40:40;;;;;;;;;;;15.60;99.90;;;;;;5052336;28;19932;-87
2021/07/08 02:43:07;;;;;;;;;;;15.50;99.90;;;;;;5019635;28;19929;-87
2021/07/08 02:45:34;;;;;;;;;;;15.50;99.90;;;;;;5041825;28;19939;-87
2021/07/08 02:48:00;;;;;;;;;;;15.50;99.90;;;;;;5034316;28;19973;-87
2021/07/08 02:50:28;;;;;;;;;;;15.50;99.90;;;;;;5026538;28;20443;-87
2021/07/08 02:52:54;;;;;;;;;;;15.50;99.90;;;;;;5032950;28;19974;-87
2021/07/08 02:55:20;;;;;;;;;;;15.60;99.90;;;;;;5018425;28;20023;-87
2021/07/08 02:57:46;;;;;;;;;;;15.60;99.90;;;;;;5032807;28;20362;-86
2021/07/08 03:00:13;;;;;;;;;;;15.60;99.90;;;;;;5052090;28;19924;-88
2021/07/08 03:02:39;;;;;;;;;;;15.60;99.90;;;;;;5034153;28;19924;-87
2021/07/08 03:05:07;;;;;;;;;;;15.70;99.90;;;;;;5034192;28;19924;-86
2021/07/08 03:07:33;;;;;;;;;;;15.70;99.90;;;;;;5062092;28;19924;-87
2021/07/08 03:09:59;;;;;;;;;;;15.60;99.90;;;;;;5017782;28;20012;-86
2021/07/08 03:12:24;;;;;;;;;;;15.60;99.90;;;;;;5017282;28;20394;-87
2021/07/08 03:14:50;;;;;;;;;;;15.60;99.90;;;;;;5018950;28;19978;-87
2021/07/08 03:17:16;;;;;;;;;;;15.60;99.90;;;;;;5017409;28;20016;-87
2021/07/08 03:19:42;;;;;;;;;;;15.60;99.90;;;;;;5017293;28;20661;-87
2021/07/08 03:22:09;;;;;;;;;;;15.50;99.90;;;;;;5017750;28;19920;-86
2021/07/08 03:24:35;;;;;;;;;;;15.50;99.90;;;;;;5029130;28;19921;-87
2021/07/08 03:27:02;;;;;;;;;;;15.40;99.90;;;;;;5051631;28;20387;-87
2021/07/08 03:29:27;;;;;;;;;;;15.50;99.90;;;;;;5067176;28;19978;-86
2021/07/08 03:31:53;;;;;;;;;;;15.50;99.90;;;;;;5050756;28;20368;-86
2021/07/08 03:34:19;;;;;;;;;;;15.50;99.90;;;;;;5034386;28;20011;-87
2021/07/08 03:36:45;;;;;;;;;;;15.50;99.90;;;;;;5017323;28;19921;-87
2021/07/08 03:39:10;;;;;;;;;;;15.50;99.90;;;;;;5017462;28;19955;-86
2021/07/08 03:41:36;;;;;;;;;;;15.40;99.90;;;;;;5017573;28;19974;-85
2021/07/08 03:44:02;;;;;;;;;;;15.40;99.90;;;;;;5006925;28;19925;-87
2021/07/08 03:46:27;;;;;;;;;;;15.40;99.90;;;;;;5032383;28;20391;-87
2021/07/08 03:48:53;;;;;;;;;;;15.40;99.90;;;;;;5017863;28;19933;-86
2021/07/08 03:51:19;;;;;;;;;;;15.30;99.90;;;;;;5033473;28;20027;-87
2021/07/08 03:53:45;;;;;;;;;;;15.30;99.90;;;;;;5069148;28;20419;-87
2021/07/08 03:56:12;;;;;;;;;;;15.30;99.90;;;;;;5067767;28;19924;-87
2021/07/08 03:58:39;;;;;;;;;;;15.30;99.90;;;;;;5050386;28;19927;-86
2021/07/08 04:01:05;;;;;;;;;;;15.30;99.90;;;;;;5033701;28;20371;-87
2021/07/08 04:03:30;;;;;;;;;;;15.30;99.90;;;;;;5036679;28;19951;-87
2021/07/08 04:05:56;;;;;;;;;;;15.30;99.90;;;;;;5053305;28;19924;-87
2021/07/08 04:08:22;;;;;;;;;;;15.30;99.90;;;;;;5074216;28;19924;-86
2021/07/08 04:10:52;;;;;;;;;;;15.30;99.90;;;;;;5053750;28;19924;-87
2021/07/08 04:13:19;;;;;;;;;;;15.30;99.90;;;;;;5051960;28;19958;-87
2021/07/08 04:15:46;;;;;;;;;;;15.30;99.90;;;;;;5054013;28;19946;-87
2021/07/08 04:18:12;;;;;;;;;;;15.30;99.90;;;;;;5053854;28;19920;-87
2021/07/08 04:20:58;;;;;;;;;;;15.40;99.90;;;;;;5042619;28;20022;-87
2021/07/08 04:23:24;;;;;;;;;;;15.40;99.90;;;;;;5053429;28;20031;-87
2021/07/08 04:25:49;;;;;;;;;;;15.50;99.90;;;;;;5046194;28;20342;-87
2021/07/08 04:28:15;;;;;;;;;;;15.60;99.90;;;;;;5034790;28;20007;-87
2021/07/08 04:30:42;;;;;;;;;;;15.60;99.90;;;;;;5037743;28;19920;-87
2021/07/08 04:33:08;;;;;;;;;;;15.70;99.90;;;;;;5039102;28;19929;-87
2021/07/08 04:35:40;;;;;;;;;;;15.80;99.90;;;;;;5034293;28;19925;-87
2021/07/08 04:38:10;;;;;;;;;;;15.90;99.90;;;;;;5032789;28;20284;-87
2021/07/08 04:40:56;;;;;;;;;;;16.00;99.90;;;;;;5038325;28;19920;-87
2021/07/08 04:43:22;;;;;;;;;;;16.00;99.90;;;;;;5049354;28;19925;-87
2021/07/08 04:45:48;;;;;;;;;;;16.10;99.90;;;;;;5029503;28;19940;-87
2021/07/08 04:48:14;;;;;;;;;;;16.10;99.90;;;;;;5047947;28;20015;-87
2021/07/08 04:50:42;;;;;;;;;;;16.10;99.90;;;;;;5048028;28;19928;-87
2021/07/08 04:53:08;;;;;;;;;;;16.10;99.90;;;;;;5031958;28;20335;-87
2021/07/08 04:55:34;;;;;;;;;;;16.20;99.90;;;;;;5015599;28;19925;-86
2021/07/08 04:57:59;;;;;;;;;;;16.20;99.90;;;;;;5049766;28;20497;-87
2021/07/08 05:00:25;;;;;;;;;;;16.20;99.90;;;;;;5036757;28;19924;-86
2021/07/08 05:02:52;;;;;;;;;;;16.20;99.90;;;;;;5033044;28;20280;-87
2021/07/08 05:05:18;;;;;;;;;;;16.10;99.90;;;;;;5050291;28;19929;-86
2021/07/08 05:07:44;;;;;;;;;;;16.10;99.90;;;;;;5032202;28;19920;-87
2021/07/08 05:10:11;;;;;;;;;;;16.10;99.90;;;;;;5013789;28;19921;-87
2021/07/08 05:12:41;;;;;;;;;;;16.10;99.90;;;;;;5031722;28;19944;-87
2021/07/08 05:15:08;;;;;;;;;;;16.10;99.90;;;;;;5015817;28;20376;-87
2021/07/08 05:17:34;;;;;;;;;;;16.10;99.90;;;;;;5030978;28;19921;-87
2021/07/08 05:19:59;;;;;;;;;;;16.10;99.90;;;;;;5065623;28;20422;-87
2021/07/08 05:22:25;;;;;;;;;;;16.20;99.90;;;;;;5057499;28;19928;-87
2021/07/08 05:24:51;;;;;;;;;;;16.20;99.90;;;;;;5019677;28;20707;-86
2021/07/08 05:27:17;;;;;;;;;;;16.20;99.90;;;;;;5049294;28;19924;-89
2021/07/08 05:29:43;;;;;;;;;;;16.20;99.90;;;;;;5031574;28;19951;-87
2021/07/08 05:32:09;;;;;;;;;;;16.30;99.90;;;;;;5044183;28;19960;-87
2021/07/08 05:34:35;;;;;;;;;;;16.30;99.90;;;;;;5044580;28;19995;-88
2021/07/08 05:37:02;;;;;;;;;;;16.40;99.90;;;;;;5050036;28;19924;-87
2021/07/08 05:39:28;;;;;;;;;;;16.40;99.90;;;;;;5034979;28;20376;-87
2021/07/08 05:41:54;;;;;;;;;;;16.40;99.90;;;;;;5014499;28;19924;-88
2021/07/08 05:44:20;;;;;;;;;;;16.50;99.90;;;;;;5016168;28;19974;-87
2021/07/08 05:46:45;;;;;;;;;;;16.50;99.90;;;;;;5030318;28;19954;-88
2021/07/08 05:49:11;;;;;;;;;;;16.60;99.90;;;;;;5045233;28;19971;-87
2021/07/08 05:51:37;;;;;;;;;;;16.60;99.90;;;;;;5028813;28;19928;-87
2021/07/08 05:54:03;;;;;;;;;;;16.70;99.90;;;;;;5017059;28;20019;-87
2021/07/08 05:56:29;;;;;;;;;;;16.70;99.90;;;;;;5033816;28;20012;-87
2021/07/08 05:58:55;;;;;;;;;;;16.80;99.90;;;;;;5017509;28;20310;-87
2021/07/08 06:01:21;;;;;;;;;;;16.80;99.90;;;;;;5034044;28;19971;-88
2021/07/08 06:03:47;;;;;;;;;;;16.80;99.90;;;;;;4997855;28;19925;-88
2021/07/08 06:06:14;;;;;;;;;;;16.90;99.90;;;;;;4997628;28;19970;-88
2021/07/08 06:08:40;;;;;;;;;;;16.90;99.90;;;;;;5013288;28;19928;-88
2021/07/08 06:11:06;;;;;;;;;;;17.00;99.90;;;;;;5030155;28;20280;-88
2021/07/08 06:13:36;;;;;;;;;;;17.00;99.90;;;;;;5013713;28;19961;-89
2021/07/08 06:16:02;;;;;;;;;;;17.10;99.90;;;;;;5000985;28;19978;-87
2021/07/08 06:18:28;;;;;;;;;;;17.10;99.90;;;;;;5050078;28;19925;-87
2021/07/08 06:20:54;;;;;;;;;;;17.10;99.90;;;;;;5049530;28;20372;-88
2021/07/08 06:23:21;;;;;;;;;;;17.20;99.90;;;;;;5033501;28;19927;-89
2021/07/08 06:25:47;;;;;;;;;;;17.20;99.90;;;;;;5047587;28;19929;-89
2021/07/08 06:28:14;;;;;;;;;;;17.20;99.90;;;;;;5065955;28;19925;-88
2021/07/08 06:30:40;;;;;;;;;;;17.20;99.90;;;;;;5046370;28;19967;-88
2021/07/08 06:33:06;;;;;;;;;;;17.30;99.90;;;;;;5048741;28;20016;-88
2021/07/08 06:35:32;;;;;;;;;;;17.30;99.90;;;;;;5065993;28;20023;-88
2021/07/08 06:37:58;;;;;;;;;;;17.30;99.90;;;;;;5031907;28;20400;-88
2021/07/08 06:40:23;;;;;;;;;;;17.40;99.90;;;;;;5032134;28;19967;-88
2021/07/08 06:42:49;;;;;;;;;;;17.40;99.90;;;;;;5015148;28;19921;-88
2021/07/08 06:45:16;;;;;;;;;;;17.40;99.90;;;;;;5034564;28;19931;-88
2021/07/08 06:47:45;;;;;;;;;;;17.50;99.90;;;;;;5048975;28;19996;-87
2021/07/08 06:50:11;;;;;;;;;;;17.60;99.90;;;;;;5029355;28;19917;-88
2021/07/08 06:52:36;;;;;;;;;;;17.60;99.90;;;;;;5052480;28;20384;-88
2021/07/08 06:55:03;;;;;;;;;;;17.70;99.90;;;;;;5043625;28;19967;-86
2021/07/08 06:57:29;;;;;;;;;;;17.80;99.90;;;;;;5052078;28;19924;-87
2021/07/08 06:59:55;;;;;;;;;;;17.90;99.90;;;;;;5033273;28;20344;-87
2021/07/08 07:02:20;;;;;;;;;;;18.00;99.90;;;;;;5049988;28;20003;-88
2021/07/08 07:04:46;;;;;;;;;;;18.00;99.90;;;;;;5024750;28;19924;-88
2021/07/08 07:07:15;;;;;;;;;;;18.10;99.90;;;;;;5066416;28;19928;-87
2021/07/08 07:09:41;;;;;;;;;;;18.10;99.90;;;;;;5032566;28;20024;-87
2021/07/08 07:12:07;;;;;;;;;;;18.20;99.90;;;;;;5016588;28;19921;-87
2021/07/08 07:14:32;;;;;;;;;;;18.20;99.90;;;;;;5049273;28;20383;-88
2021/07/08 07:16:58;;;;;;;;;;;18.20;99.90;;;;;;5032139;28;19975;-87
2021/07/08 07:19:24;;;;;;;;;;;18.20;99.90;;;;;;5049668;28;19975;-87
2021/07/08 07:21:49;;;;;;;;;;;18.20;99.90;;;;;;5033123;28;19925;-87
2021/07/08 07:24:15;;;;;;;;;;;18.30;99.90;;;;;;5023171;28;19925;-87
2021/07/08 07:26:41;;;;;;;;;;;18.30;99.90;;;;;;5015234;28;19978;-93
2021/07/08 07:29:07;;;;;;;;;;;18.40;99.90;;;;;;5025037;28;19932;-87
2021/07/08 07:31:32;;;;;;;;;;;18.40;99.90;;;;;;5057127;28;19924;-87
2021/07/08 07:33:58;;;;;;;;;;;18.40;99.90;;;;;;5032571;28;20544;-87
2021/07/08 07:36:24;;;;;;;;;;;18.40;99.90;;;;;;5015942;28;19952;-86
2021/07/08 07:38:50;;;;;;;;;;;18.50;99.90;;;;;;5065230;28;20375;-87
2021/07/08 07:41:15;;;;;;;;;;;18.50;99.90;;;;;;5015793;28;19925;-88
2021/07/08 07:43:41;;;;;;;;;;;18.50;99.90;;;;;;5048695;28;19928;-88
2021/07/08 07:46:07;;;;;;;;;;;18.50;99.90;;;;;;5046945;28;20403;-86
2021/07/08 07:48:34;;;;;;;;;;;18.50;99.90;;;;;;5049613;28;19929;-87
2021/07/08 07:51:00;;;;;;;;;;;18.60;99.90;;;;;;5024530;28;19921;-87
2021/07/08 07:53:25;;;;;;;;;;;18.60;99.90;;;;;;5017423;28;20474;-87
2021/07/08 07:55:51;;;;;;;;;;;18.60;99.90;;;;;;5017308;28;19924;-88
2021/07/08 07:58:18;;;;;;;;;;;18.70;99.90;;;;;;5005323;28;19928;-87
2021/07/08 08:00:55;;;;;;;;;;;18.70;99.90;;;;;;5007659;28;19975;-86
2021/07/08 08:03:21;;;;;;;;;;;18.80;99.90;;;;;;4996877;28;19948;-86
2021/07/08 08:05:57;;;;;;;;;;;18.80;99.90;;;;;;5013759;28;19925;-86
2021/07/08 08:08:30;;;;;;;;;;;18.80;99.90;;;;;;5018314;28;19983;-87
2021/07/08 08:10:57;;;;;;;;;;;18.80;99.90;;;;;;5028111;28;19925;-87
2021/07/08 08:13:22;;;;;;;;;;;18.90;99.90;;;;;;5034855;28;19926;-87
2021/07/08 08:15:50;;;;;;;;;;;18.90;99.90;;;;;;5041625;28;19931;-87
2021/07/08 08:18:16;;;;;;;;;;;18.90;99.90;;;;;;5027204;28;19925;-86
2021/07/08 08:20:42;;;;;;;;;;;18.90;99.90;;;;;;5014638;28;19931;-88
2021/07/08 08:23:08;;;;;;;;;;;18.90;99.90;;;;;;5031463;28;19925;-87
2021/07/08 08:25:34;;;;;;;;;;;19.00;99.90;;;;;;5015825;28;19924;-87
2021/07/08 08:28:00;;;;;;;;;;;19.00;99.90;;;;;;5035696;28;20391;-86
2021/07/08 08:30:25;;;;;;;;;;;19.00;99.90;;;;;;5031209;28;19924;-86
2021/07/08 08:32:51;;;;;;;;;;;19.00;99.90;;;;;;5029744;28;20028;-86
2021/07/08 08:35:17;;;;;;;;;;;19.10;99.90;;;;;;4998451;28;20360;-88
2021/07/08 08:37:43;;;;;;;;;;;19.10;99.90;;;;;;4994765;28;19924;-87
2021/07/08 08:40:12;;;;;;;;;;;19.10;99.90;;;;;;5029313;28;21654;-86
2021/07/08 08:42:38;;;;;;;;;;;19.10;99.90;;;;;;5030657;28;19929;-86
2021/07/08 08:45:06;;;;;;;;;;;19.20;99.90;;;;;;5017351;28;19970;-86
2021/07/08 08:47:32;;;;;;;;;;;19.20;99.90;;;;;;5057149;28;19920;-86
2021/07/08 08:49:59;;;;;;;;;;;19.20;99.90;;;;;;5012066;28;19960;-88
2021/07/08 08:52:27;;;;;;;;;;;19.20;99.90;;;;;;5032414;28;19936;-86
2021/07/08 08:54:53;;;;;;;;;;;19.30;99.90;;;;;;5032566;28;19932;-85
2021/07/08 08:57:19;;;;;;;;;;;19.30;99.90;;;;;;5045535;28;20406;-86
2021/07/08 08:59:45;;;;;;;;;;;19.30;99.90;;;;;;5029892;28;19957;-86
2021/07/08 09:02:15;;;;;;;;;;;19.30;99.90;;;;;;5027340;28;19951;-86
2021/07/08 09:04:41;;;;;;;;;;;19.30;99.90;;;;;;5064636;28;20003;-87
2021/07/08 09:07:23;;;;;;;;;;;19.30;99.90;;;;;;4999708;28;20371;-86
2021/07/08 09:09:56;;;;;;;;;;;19.40;99.90;;;;;;5031555;28;19925;-88
2021/07/08 09:12:23;;;;;;;;;;;19.40;99.90;;;;;;5031414;28;19947;-86
2021/07/08 09:14:53;;;;;;;;;;;19.40;99.90;;;;;;5029414;28;19986;-88
2021/07/08 09:17:20;;;;;;;;;;;19.40;99.90;;;;;;5048677;28;19932;-87
2021/07/08 09:19:46;;;;;;;;;;;19.50;99.90;;;;;;5034754;28;19950;-87
2021/07/08 09:22:25;;;;;;;;;;;19.60;99.90;;;;;;5030605;28;19925;-87
2021/07/08 09:24:51;;;;;;;;;;;19.50;99.90;;;;;;5046737;28;19921;-87
2021/07/08 09:27:17;;;;;;;;;;;19.60;99.90;;;;;;5014528;28;19931;-87
2021/07/08 09:29:48;;;;;;;;;;;19.60;99.90;;;;;;5046260;28;20011;-86
2021/07/08 09:32:16;;;;;;;;;;;19.70;99.90;;;;;;5029377;28;19921;-86
2021/07/08 09:34:46;;;;;;;;;;;19.80;99.90;;;;;;5047193;28;19921;-88
2021/07/08 09:37:12;;;;;;;;;;;19.80;99.90;;;;;;5031222;28;19921;-87
2021/07/08 09:39:40;;;;;;;;;;;19.80;99.90;;;;;;5015073;28;19964;-87
2021/07/08 09:42:06;;;;;;;;;;;19.80;99.90;;;;;;5014813;28;19921;-86
2021/07/08 09:44:32;;;;;;;;;;;19.80;99.90;;;;;;5031216;28;19925;-87
2021/07/08 09:46:58;;;;;;;;;;;19.70;99.90;;;;;;5058417;28;19975;-86
2021/07/08 09:49:24;;;;;;;;;;;19.70;99.90;;;;;;5035783;28;19924;-88
2021/07/08 09:51:51;;;;;;;;;;;19.80;99.90;;;;;;5013791;28;19963;-87
2021/07/08 09:54:42;;;;;;;;;;;19.80;99.90;;;;;;5002558;28;19935;-87
2021/07/08 09:57:07;;;;;;;;;;;19.80;99.90;;;;;;5029988;28;19924;-87
2021/07/08 09:59:35;;;;;;;;;;;19.80;99.90;;;;;;5053403;28;20041;-86
2021/07/08 10:02:01;;;;;;;;;;;19.80;99.90;;;;;;5040539;28;19925;-87
2021/07/08 10:04:27;;;;;;;;;;;19.80;99.90;;;;;;5041157;28;20445;-87
2021/07/08 10:06:54;;;;;;;;;;;19.90;99.90;;;;;;5015158;28;20744;-87
2021/07/08 10:09:20;;;;;;;;;;;20.00;99.90;;;;;;5016690;28;20433;-86
2021/07/08 10:11:57;;;;;;;;;;;20.10;99.90;;;;;;5054777;28;19924;-86
2021/07/08 10:14:23;;;;;;;;;;;20.10;99.90;;;;;;5021718;28;19925;-87
2021/07/08 10:16:51;;;;;;;;;;;20.20;99.90;;;;;;5029250;28;20007;-88
2021/07/08 10:19:17;;;;;;;;;;;20.30;99.90;;;;;;5029258;28;19955;-88
2021/07/08 10:21:44;;;;;;;;;;;20.30;99.90;;;;;;5028043;28;19924;-86
2021/07/08 10:24:11;;;;;;;;;;;20.40;99.90;;;;;;5049951;28;19928;-87
2021/07/08 10:26:37;;;;;;;;;;;20.40;99.90;;;;;;5052415;28;19924;-87
2021/07/08 10:29:03;;;;;;;;;;;20.40;99.90;;;;;;5054215;28;19931;-87
2021/07/08 10:31:29;;;;;;;;;;;20.50;99.90;;;;;;5038794;28;19929;-86
2021/07/08 10:34:09;;;;;;;;;;;20.50;99.90;;;;;;5046413;28;20288;-87
2021/07/08 10:36:35;;;;;;;;;;;20.60;99.90;;;;;;5033150;28;19925;-86
2021/07/08 10:39:13;;;;;;;;;;;20.60;99.90;;;;;;5037635;28;19971;-88
2021/07/08 10:41:40;;;;;;;;;;;20.60;99.90;;;;;;5049324;28;19927;-88
2021/07/08 10:44:25;;;;;;;;;;;20.70;99.90;;;;;;5044774;28;20379;-87
2021/07/08 10:46:51;;;;;;;;;;;20.70;99.90;;;;;;5051873;28;20406;-89
2021/07/08 10:49:17;;;;;;;;;;;20.70;99.90;;;;;;5051914;28;19924;-89
2021/07/08 10:51:43;;;;;;;;;;;20.60;99.90;;;;;;5044231;28;20391;-86
2021/07/08 10:54:28;;;;;;;;;;;20.60;99.90;;;;;;5034809;28;19931;-87
2021/07/08 10:56:58;;;;;;;;;;;20.60;99.90;;;;;;5051837;28;19979;-87
2021/07/08 10:59:36;;;;;;;;;;;20.60;99.90;;;;;;5047666;28;19955;-88
2021/07/08 11:02:02;;;;;;;;;;;20.70;99.90;;;;;;5041067;28;20434;-88
2021/07/08 11:04:41;;;;;;;;;;;20.80;99.90;;;;;;5019129;28;20011;-88
2021/07/08 11:07:14;;;;;;;;;;;20.80;99.90;;;;;;5033491;28;20008;-88
2021/07/08 11:09:53;;;;;;;;;;;20.90;99.90;;;;;;5018838;28;19921;-88
2021/07/08 11:12:27;;;;;;;;;;;20.90;99.90;;;;;;5040151;28;20411;-88
2021/07/08 11:14:53;;;;;;;;;;;20.90;99.90;;;;;;5036617;28;19936;-87
2021/07/08 11:17:19;;;;;;;;;;;20.90;99.90;;;;;;5035026;28;19921;-88
2021/07/08 11:19:48;;;;;;;;;;;20.90;99.90;;;;;;5044238;28;19921;-88
2021/07/08 11:22:24;;;;;;;;;;;21.00;99.90;;;;;;5025862;28;19924;-87
2021/07/08 11:24:51;;;;;;;;;;;21.10;99.90;;;;;;5035253;28;19932;-88
2021/07/08 11:27:17;;;;;;;;;;;21.10;99.90;;;;;;5050974;28;20796;-88
2021/07/08 11:29:47;;;;;;;;;;;21.20;99.90;;;;;;5051113;28;20024;-87
2021/07/08 11:32:18;;;;;;;;;;;21.30;99.90;;;;;;5051003;28;20062;-87
2021/07/08 11:34:49;;;;;;;;;;;21.30;99.90;;;;;;5048124;28;20018;-88
2021/07/08 11:37:17;;;;;;;;;;;21.30;99.90;;;;;;5018062;28;20418;-87
2021/07/08 11:39:43;;;;;;;;;;;21.20;99.90;;;;;;5051096;28;19968;-89
2021/07/08 11:42:09;;;;;;;;;;;21.30;99.90;;;;;;5034222;28;20404;-87
2021/07/08 11:44:37;;;;;;;;;;;21.40;99.90;;;;;;5037607;28;20016;-87
2021/07/08 11:47:03;;;;;;;;;;;21.40;99.90;;;;;;5050077;28;20338;-88
2021/07/08 11:49:29;;;;;;;;;;;21.50;99.90;;;;;;5037072;28;19920;-88
2021/07/08 11:51:54;;;;;;;;;;;21.60;99.90;;;;;;5038898;28;20311;-88
2021/07/08 11:54:20;;;;;;;;;;;21.70;99.90;;;;;;5067838;28;20021;-89
2021/07/08 11:56:46;;;;;;;;;;;21.70;99.90;;;;;;5083938;28;19917;-87
2021/07/08 11:59:12;;;;;;;;;;;21.70;99.90;;;;;;5050805;28;20407;-87
2021/07/08 12:01:40;;;;;;;;;;;21.80;99.90;;;;;;5033615;28;19917;-88
2021/07/08 12:04:19;;;;;;;;;;;21.70;99.90;;;;;;5044289;28;19935;-88
2021/07/08 12:06:45;;;;;;;;;;;21.70;99.90;;;;;;5035805;28;20027;-87
2021/07/08 12:09:10;;;;;;;;;;;21.70;99.90;;;;;;5035196;28;20019;-87
2021/07/08 12:11:39;;;;;;;;;;;21.80;99.90;;;;;;5064303;28;19955;-87
2021/07/08 12:14:07;;;;;;;;;;;21.80;99.90;;;;;;5071307;28;20280;-88
2021/07/08 12:16:34;;;;;;;;;;;21.80;99.90;;;;;;5053258;28;19931;-89
2021/07/08 12:19:02;;;;;;;;;;;21.90;99.90;;;;;;5035871;28;20252;-88
2021/07/08 12:21:34;;;;;;;;;;;21.90;99.90;;;;;;5049803;28;19924;-85
2021/07/08 12:24:02;;;;;;;;;;;22.00;99.90;;;;;;5059583;28;19974;-85
2021/07/08 12:26:32;;;;;;;;;;;22.10;99.90;;;;;;5040122;28;20299;-85
2021/07/08 12:29:15;;;;;;;;;;;22.20;99.90;;;;;;5052592;28;20418;-85
2021/07/08 12:31:45;;;;;;;;;;;22.10;99.90;;;;;;5048992;28;19925;-85
2021/07/08 12:34:11;;;;;;;;;;;22.20;99.90;;;;;;5082648;28;19920;-85
2021/07/08 12:36:37;;;;;;;;;;;22.20;99.90;;;;;;5065547;28;20011;-85
2021/07/08 12:39:04;;;;;;;;;;;22.10;99.90;;;;;;5050239;28;20007;-85
2021/07/08 12:41:29;;;;;;;;;;;22.10;99.90;;;;;;5037323;28;20007;-86
2021/07/08 12:43:55;;;;;;;;;;;22.10;99.90;;;;;;5068798;28;20011;-84
2021/07/08 12:46:29;;;;;;;;;;;22.20;99.90;;;;;;5051146;28;20023;-85
2021/07/08 12:48:55;;;;;;;;;;;22.20;99.90;;;;;;5051687;28;19944;-85
2021/07/08 12:51:21;;;;;;;;;;;22.20;99.90;;;;;;5013302;28;20293;-84
2021/07/08 12:53:47;;;;;;;;;;;22.20;99.90;;;;;;5028104;28;20011;-86
2021/07/08 12:56:13;;;;;;;;;;;22.20;99.90;;;;;;5032096;28;19932;-86
2021/07/08 12:58:39;;;;;;;;;;;22.20;99.90;;;;;;5050114;28;20317;-86
2021/07/08 13:01:06;;;;;;;;;;;22.20;99.90;;;;;;5067155;28;19924;-84
2021/07/08 13:03:32;;;;;;;;;;;22.30;99.90;;;;;;5051967;28;19930;-86
2021/07/08 13:06:09;;;;;;;;;;;22.50;99.90;;;;;;5026657;28;19964;-86
2021/07/08 13:08:35;;;;;;;;;;;22.60;99.90;;;;;;5053128;28;19936;-84
2021/07/08 13:11:11;;;;;;;;;;;22.60;99.90;;;;;;5081884;28;19947;-85
2021/07/08 13:13:38;;;;;;;;;;;22.70;99.90;;;;;;5045888;28;19963;-85
2021/07/08 13:16:04;;;;;;;;;;;22.70;99.90;;;;;;5031538;28;19963;-84
2021/07/08 13:18:34;;;;;;;;;;;22.80;99.90;;;;;;5051822;28;19927;-87
2021/07/08 13:21:29;;;;;;;;;;;22.90;99.90;;;;;;5033356;28;19952;-86
2021/07/08 13:23:55;;;;;;;;;;;22.80;99.90;;;;;;5043144;28;19924;-87
2021/07/08 13:26:21;;;;;;;;;;;22.70;99.90;;;;;;5017452;28;19921;-86
2021/07/08 13:28:48;;;;;;;;;;;22.60;99.90;;;;;;5051993;28;19927;-87
2021/07/08 13:31:15;;;;;;;;;;;22.60;99.90;;;;;;5048777;28;19936;-86
2021/07/08 13:33:48;;;;;;;;;;;22.50;99.90;;;;;;5034972;28;19925;-84
2021/07/08 13:36:20;;;;;;;;;;;22.40;99.90;;;;;;5054205;28;19991;-85
2021/07/08 13:38:51;;;;;;;;;;;22.50;99.90;;;;;;5060572;28;19925;-87
2021/07/08 13:41:19;;;;;;;;;;;22.40;99.90;;;;;;5051111;28;19920;-86
2021/07/08 13:43:47;;;;;;;;;;;22.50;99.90;;;;;;5064772;28;20371;-86
2021/07/08 13:46:15;;;;;;;;;;;22.50;99.90;;;;;;5051178;28;20383;-87
2021/07/08 13:48:41;;;;;;;;;;;22.50;99.90;;;;;;5081138;28;19920;-86
2021/07/08 13:51:07;;;;;;;;;;;22.50;99.90;;;;;;5050403;28;19949;-88
2021/07/08 13:53:33;;;;;;;;;;;22.60;99.90;;;;;;5064010;28;19929;-87
2021/07/08 13:55:59;;;;;;;;;;;22.60;99.90;;;;;;5028020;28;20281;-88
2021/07/08 13:58:26;;;;;;;;;;;22.70;99.90;;;;;;5048838;28;19920;-86
2021/07/08 14:00:51;;;;;;;;;;;22.80;99.90;;;;;;5052047;28;19921;-88
2021/07/08 14:03:17;;;;;;;;;;;22.80;99.90;;;;;;5054510;28;20290;-87
2021/07/08 14:05:46;;;;;;;;;;;22.80;99.90;;;;;;5067651;28;19920;-87
2021/07/08 14:08:12;;;;;;;;;;;22.80;99.90;;;;;;5088073;28;19974;-88
2021/07/08 14:10:37;;;;;;;;;;;22.80;99.90;;;;;;5074367;28;19931;-87
2021/07/08 14:13:04;;;;;;;;;;;22.90;99.90;;;;;;5068654;28;19928;-86
2021/07/08 14:15:29;;;;;;;;;;;22.80;99.90;;;;;;5088683;28;20446;-85
2021/07/08 14:17:56;;;;;;;;;;;22.70;99.90;;;;;;5037706;28;20019;-84